Terminal Aerodrome Forecast
Issued by NWS

Home | Current Version | Previous Version | Text Only | Print | Product List | Glossary On
Versions: 1 2 3 4 5 6 7 8 9 10 11 12 13
000
FTUS44 KBMX 282339
TAFTCL
TAF
KTCL 282339Z 2900/2924 11008KT P6SM VCTS SCT050CB
     FM290400 11003KT P6SM SCT250
     FM290800 11004KT 4SM BR SCT015
     FM291000 11002KT 4SM BR SCT007 BKN015
     FM291500 14007KT P6SM VCTS BKN050CB=

USA.gov is the U.S. government's official web portal to all federal, state and local government web resources and services.